地図

経路データ

SID SEASON NUMBER BASIN SUBBASIN NAME ISO_TIME NATURE LAT LON WMO_WIND WMO_PRES WMO_AGENCY TRACK_TYPE DIST2LAND LANDFALL IFLAG USA_AGENCY USA_ATCF_ID USA_LAT USA_LON USA_RECORD USA_STATUS USA_WIND USA_PRES USA_SSHS USA_R34_NE USA_R34_SE USA_R34_SW USA_R34_NW USA_R50_NE USA_R50_SE USA_R50_SW USA_R50_NW USA_R64_NE USA_R64_SE USA_R64_SW USA_R64_NW USA_POCI USA_ROCI USA_RMW USA_EYE TOKYO_LAT TOKYO_LON TOKYO_GRADE TOKYO_WIND TOKYO_PRES TOKYO_R50_DIR TOKYO_R50_LONG TOKYO_R50_SHORT TOKYO_R30_DIR TOKYO_R30_LONG TOKYO_R30_SHORT TOKYO_LAND CMA_LAT CMA_LON CMA_CAT CMA_WIND CMA_PRES HKO_LAT HKO_LON HKO_CAT HKO_WIND HKO_PRES NEWDELHI_LAT NEWDELHI_LON NEWDELHI_GRADE NEWDELHI_WIND NEWDELHI_PRES NEWDELHI_CI NEWDELHI_DP NEWDELHI_POCI REUNION_LAT REUNION_LON REUNION_TYPE REUNION_WIND REUNION_PRES REUNION_TNUM REUNION_CI REUNION_RMW REUNION_R34_NE REUNION_R34_SE REUNION_R34_SW REUNION_R34_NW REUNION_R50_NE REUNION_R50_SE REUNION_R50_SW REUNION_R50_NW REUNION_R64_NE REUNION_R64_SE REUNION_R64_SW REUNION_R64_NW BOM_LAT BOM_LON BOM_TYPE BOM_WIND BOM_PRES BOM_TNUM BOM_CI BOM_RMW BOM_R34_NE BOM_R34_SE BOM_R34_SW BOM_R34_NW BOM_R50_NE BOM_R50_SE BOM_R50_SW BOM_R50_NW BOM_R64_NE BOM_R64_SE BOM_R64_SW BOM_R64_NW BOM_ROCI BOM_POCI BOM_EYE BOM_POS_METHOD BOM_PRES_METHOD NADI_LAT NADI_LON NADI_CAT NADI_WIND NADI_PRES WELLINGTON_LAT WELLINGTON_LON WELLINGTON_WIND WELLINGTON_PRES DS824_LAT DS824_LON DS824_STAGE DS824_WIND DS824_PRES TD9636_LAT TD9636_LON TD9636_STAGE TD9636_WIND TD9636_PRES TD9635_LAT TD9635_LON TD9635_WIND TD9635_PRES TD9635_ROCI NEUMANN_LAT NEUMANN_LON NEUMANN_CLASS NEUMANN_WIND NEUMANN_PRES MLC_LAT MLC_LON MLC_CLASS MLC_WIND MLC_PRES USA_GUST BOM_GUST BOM_GUST_PER REUNION_GUST REUNION_GUST_PER USA_SEAHGT USA_SEARAD_NE USA_SEARAD_SE USA_SEARAD_SW USA_SEARAD_NW STORM_SPEED STORM_DIR
1977328S06177 1978 112 SP MM STEVE 1977-11-24 00:00:00 TS -6.02000 176.720 30 997 wellington main 1191 1172 O_______OOO_O_ jtwc_sh SH031978 -5.90000 176.900 25 -1 -6.50000 176.000 30 997 -5.90000 176.900 TC 25 -5.90000 176.900 1 25 -5.90000 176.900 TC 25 6 224
1977328S06177 1978 112 SP MM STEVE 1977-11-24 03:00:00 TS -6.23192 176.516 main 1176 1158 P_______PPP_P_ SH031978 -6.15002 176.645 25 -1 -6.55781 176.005 32 995 -6.15002 176.645 TC 25 -6.15170 176.638 1 -6.15002 176.645 TC 25 6 223
1977328S06177 1978 112 SP MM STEVE 1977-11-24 06:00:00 TS -6.44303 176.320 main 1161 1144 O_______POP_O_ jtwc_sh SH031978 -6.40000 176.400 25 -1 -6.61250 176.007 35 993 -6.40000 176.400 TC 25 -6.40266 176.390 1 -6.40000 176.400 TC 25 6 221
1977328S06177 1978 112 SP MM STEVE 1977-11-24 09:00:00 TS -6.65264 176.142 main 1137 1126 P_______PPP_P_ SH031978 -6.65000 176.177 25 -1 -6.66094 176.007 37 991 -6.65000 176.177 TC 25 -6.65229 176.173 1 -6.65000 176.177 TC 25 5 217
1977328S06177 1978 112 SP MM STEVE 1977-11-24 12:00:00 TS -6.86000 176.000 40 990 wellington main 1119 1102 O_______OOO_O_ jtwc_sh SH031978 -6.90000 176.000 25 -1 -6.70000 176.000 40 990 -6.90000 176.000 TC 25 -6.90000 176.000 1 -6.90000 176.000 TC 25 5 211
1977328S06177 1978 112 SP MM STEVE 1977-11-24 15:00:00 TS -7.06542 175.896 main 1102 1085 P_______PPP_P_ SH031978 -7.14999 175.870 27 -1 -6.73125 175.988 40 990 -7.14999 175.870 TC 27 -7.14587 175.883 1 -7.14999 175.870 TC 27 4 201
1977328S06177 1978 112 SP MM STEVE 1977-11-24 18:00:00 TS -7.27348 175.839 main 1085 1064 O_______POP_O_ jtwc_sh SH031978 -7.40000 175.800 30 -1 -6.77500 175.978 40 990 -7.40000 175.800 TC 30 -7.39242 175.817 1 -7.40000 175.800 TC 30 4 190
1977328S06177 1978 112 SP MM STEVE 1977-11-24 21:00:00 TS -7.48830 175.821 main 1064 1043 P_______PPP_P_ SH031978 -7.64999 175.777 30 -1 -6.85625 175.979 40 990 -7.64999 175.777 TC 30 -7.64277 175.793 1 -7.64250 175.777 TC 30 5 0
1977328S06177 1978 112 SP MM STEVE 1977-11-25 00:00:00 TS -7.72000 175.840 40 990 wellington main 1043 1008 O_______OOO_O_ jtwc_sh SH031978 -7.90000 175.800 30 -1 -7.00000 176.000 40 990 -7.90000 175.800 TC 30 -7.90000 175.800 1 30 -7.90000 175.800 TC 30 5 173
1977328S06177 1978 112 SP MM STEVE 1977-11-25 03:00:00 TS -7.97357 175.884 main 1008 987 P_______PPP_P_ SH031978 -8.14250 175.842 30 -1 -7.23127 176.057 40 990 -8.14250 175.842 TC 30 -8.15158 175.837 1 -8.20000 175.842 TC 30 5 169
1977328S06177 1978 112 SP MM STEVE 1977-11-25 06:00:00 TS -8.24751 175.947 main 987 952 O_______POP_O_ jtwc_sh SH031978 -8.40000 175.900 30 -1 -7.52504 176.135 40 990 -8.40000 175.900 TC 30 -8.41253 175.900 1 -8.50000 175.900 TC 30 6 167
1977328S06177 1978 112 SP MM STEVE 1977-11-25 09:00:00 TS -8.53070 176.015 main 952 917 P_______PPP_P_ SH031978 -8.68500 175.965 32 -1 -7.85628 176.220 40 990 -8.68500 175.965 TC 32 -8.69221 175.962 1 -8.73500 175.965 TC 32 6 169
1977328S06177 1978 112 SP MM STEVE 1977-11-25 12:00:00 TS -8.84000 176.060 40 990 wellington main 917 875 O_______OOO_O_ jtwc_sh SH031978 -9.00000 176.000 35 0 -8.20000 176.300 40 990 -9.00000 176.000 TC 35 -9.00000 176.000 2 -9.00000 176.000 TC 35 7 176
1977328S06177 1978 112 SP MM STEVE 1977-11-25 15:00:00 TS -9.18625 176.053 main 875 848 P_______PPP_P_ SH031978 -9.33500 175.965 35 0 -8.50968 176.385 40 990 -9.33500 175.965 TC 35 -9.36655 175.983 2 -9.38500 175.965 TC 35 7 182
1977328S06177 1978 112 SP MM STEVE 1977-11-25 18:00:00 TS -9.55700 176.019 main 838 807 O_______POP_O_ jtwc_sh SH031978 -9.70000 175.900 35 0 -8.82749 176.460 40 990 -9.70000 175.900 TC 35 -9.75750 175.938 2 -9.80000 175.900 TC 35 8 185
1977328S06177 1978 112 SP MM STEVE 1977-11-25 21:00:00 TS -9.94075 175.986 main 807 769 P_______PPP_P_ SH031978 -10.1150 175.850 37 0 -9.15655 176.504 40 990 -10.1150 175.850 TC 37 -10.1447 175.874 2 -10.1725 175.850 TC 37 8 186
1977328S06177 1978 112 SP MM STEVE 1977-11-26 00:00:00 TS -10.3000 175.940 40 990 wellington main 769 738 O_______OOO_O_ jtwc_sh SH031978 -10.5000 175.800 40 0 -9.50000 176.500 40 990 -10.5000 175.800 TC 40 -10.5000 175.800 2 40 -10.5000 175.800 TC 40 7 188
1977328S06177 1978 112 SP MM STEVE 1977-11-26 03:00:00 TS -10.5832 175.892 main 738 722 P_______PPP_P_ SH031978 -10.7725 175.757 42 0 -9.84029 176.445 40 990 -10.7725 175.757 TC 42 -10.7656 175.740 2 -10.7650 175.757 TC 42 6 192
1977328S06177 1978 112 SP MM STEVE 1977-11-26 06:00:00 TS -10.8395 175.822 main 722 696 O_______POP_O_ jtwc_sh SH031978 -11.0000 175.700 45 0 -10.1975 176.340 40 990 -11.0000 175.700 TC 45 -11.0000 175.672 2 -11.0000 175.700 TC 45 5 197
1977328S06177 1978 112 SP MM STEVE 1977-11-26 09:00:00 TS -11.1010 175.725 main 696 670 P_______PPP_P_ SH031978 -11.2275 175.615 47 0 -10.5809 176.189 40 990 -11.2275 175.615 TC 47 -11.2343 175.593 2 -11.2350 175.615 TC 47 6 201
1977328S06177 1978 112 SP MM STEVE 1977-11-26 12:00:00 TS -11.4000 175.600 40 990 wellington main 670 642 O_______OOO_O_ jtwc_sh SH031978 -11.5000 175.500 50 0 -11.0000 176.000 40 990 -11.5000 175.500 TC 50 -11.5000 175.500 2 -11.5000 175.500 TC 50 8 202
1977328S06177 1978 112 SP MM STEVE 1977-11-26 15:00:00 TS -11.7899 175.436 main 642 610 P_______PPP_P_ SH031978 -11.8850 175.350 55 0 -11.4846 175.754 46 985 -11.8850 175.350 TC 55 -11.8675 175.377 2 -11.8275 175.350 TC 55 9 202
1977328S06177 1978 112 SP MM STEVE 1977-11-26 18:00:00 TS -12.2131 175.264 main 610 586 O_______POP_O_ jtwc_sh SH031978 -12.3000 175.200 60 0 -12.0003 175.478 52 980 -12.3000 175.200 TC 60 -12.2651 175.243 2 -12.2000 175.200 TC 60 9 201
1977328S06177 1978 112 SP MM STEVE 1977-11-26 21:00:00 TS -12.6307 175.116 main 586 559 P_______PPP_P_ SH031978 -12.6800 175.085 62 0 -12.5159 175.214 58 975 -12.6800 175.085 TC 62 -12.6551 175.112 2 -12.6225 175.085 TC 62 8 198
1977328S06177 1978 112 SP MM STEVE 1977-11-27 00:00:00 TS -13.0000 175.000 65 970 wellington main 559 542 O_______OOO_O_ jtwc_sh SH031978 -13.0000 175.000 65 1 -13.0000 175.000 65 970 -13.0000 175.000 TC 65 -13.0000 175.000 4 65 -13.0000 175.000 TC 65 7 196
1977328S06177 1978 112 SP MM STEVE 1977-11-27 03:00:00 TS -13.2721 174.930 main 542 527 P_______PPP_P_ SH031978 -13.2225 174.942 65 1 -13.4513 174.888 66 968 -13.2225 174.942 TC 65 -13.2340 174.932 4 65 -13.2300 174.942 TC 65 5 193
1977328S06177 1978 112 SP MM STEVE 1977-11-27 06:00:00 TS -13.4969 174.883 main 527 508 O_______POP_O_ jtwc_sh SH031978 -13.4000 174.900 65 1 -13.8623 174.832 67 967 -13.4000 174.900 TC 65 -13.4224 174.885 4 65 -13.4000 174.900 TC 65 5 190
1977328S06177 1978 112 SP MM STEVE 1977-11-27 09:00:00 TS -13.7173 174.845 main 514 495 P_______PPP_P_ SH031978 -13.5925 174.857 65 1 -14.2170 174.810 68 966 -13.5925 174.857 TC 65 -13.5996 174.845 4 65 -13.5850 174.857 TC 62 5 190
1977328S06177 1978 112 SP MM STEVE 1977-11-27 12:00:00 TS -13.9400 174.800 70 965 wellington main 495 475 O_______OOO_O_ jtwc_sh SH031978 -13.8000 174.800 65 1 -14.5000 174.800 70 965 -13.8000 174.800 TC 65 -13.8000 174.800 4 65 -13.8000 174.800 TC 60 5 196
1977328S06177 1978 112 SP MM STEVE 1977-11-27 15:00:00 TS -14.1630 174.715 main 475 465 P_______PPP_P_ SH031978 -14.0275 174.700 60 0 -14.6359 174.764 66 968 -14.0275 174.700 TC 60 -14.0388 174.712 4 60 -14.0850 174.700 TC 57 5 199
1977328S06177 1978 112 SP MM STEVE 1977-11-27 18:00:00 TS -14.4045 174.631 main 465 448 O_______POP_O_ jtwc_sh SH031978 -14.3000 174.600 55 0 -14.7125 174.735 62 972 -14.3000 174.600 TC 55 -14.3101 174.620 4 55 -14.4000 174.600 TC 55 5 196
1977328S06177 1978 112 SP MM STEVE 1977-11-27 21:00:00 TS -14.6658 174.569 main 440 424 P_______PPP_P_ SH031978 -14.6125 174.528 50 0 -14.8078 174.714 58 976 -14.6125 174.528 TC 50 -14.6263 174.543 4 50 -14.6700 174.535 TC 50 6 189
1977328S06177 1978 112 SP MM STEVE 1977-11-28 00:00:00 TS -15.0000 174.540 55 980 wellington main 424 395 O_______OOO_O_ jtwc_sh SH031978 -15.0000 174.500 45 0 -15.0000 174.700 55 980 -15.0000 174.500 TC 45 -15.0000 174.500 2 45 -15.0000 174.500 TC 45 8 181
1977328S06177 1978 112 SP MM STEVE 1977-11-28 03:00:00 TS -15.4520 174.548 main 388 353 P_______PPP_P_ SH031978 -15.4775 174.535 42 0 -15.3922 174.681 51 982 -15.4775 174.535 TC 42 -15.4425 174.510 2 -15.4700 174.478 TC 42 10 177
1977328S06177 1978 112 SP MM STEVE 1977-11-28 06:00:00 TS -15.9655 174.585 main 347 322 O_______POP_O_ jtwc_sh SH031978 -16.0000 174.600 40 0 -15.8876 174.670 47 985 -16.0000 174.600 TC 40 -15.9401 174.555 2 -16.0000 174.500 TC 40 10 175
1977328S06177 1978 112 SP MM STEVE 1977-11-28 09:00:00 TS -16.4813 174.638 main 322 287 P_______PPP_P_ SH031978 -16.5000 174.650 40 0 -16.4391 174.675 43 987 -16.5000 174.650 TC 40 -16.4676 174.622 2 -16.5000 174.592 TC 40 10 174
1977328S06177 1978 112 SP MM STEVE 1977-11-28 12:00:00 TS -17.0000 174.700 40 990 wellington main 287 260 O_______OOO_O_ jtwc_sh SH031978 -17.0000 174.700 40 0 -17.0000 174.700 40 990 -17.0000 174.700 TC 40 -17.0000 174.700 2 -17.0000 174.700 TC 40 10 174
1977328S06177 1978 112 SP MM STEVE 1977-11-28 15:00:00 TS -17.5065 174.754 main 260 253 P_______PPP_P_ SH031978 -17.5000 174.743 37 0 -17.5203 174.765 37 991 -17.5000 174.743 TC 37 -17.5122 174.768 2 -17.5000 174.750 TC 37 10 174
1977328S06177 1978 112 SP MM STEVE 1977-11-28 18:00:00 TS -18.0120 174.818 main 253 244 O_______POP_O_ jtwc_sh SH031978 -18.0000 174.800 35 0 -18.0375 174.849 35 993 -18.0000 174.800 TC 35 -18.0225 174.842 2 -18.0000 174.800 TC 35 10 172
1977328S06177 1978 112 SP MM STEVE 1977-11-28 21:00:00 TS -18.5160 174.911 main 249 245 P_______PPP_P_ SH031978 -18.5075 174.900 35 0 -18.5360 174.934 32 995 -18.5075 174.900 TC 35 -18.5216 174.921 2 -18.5075 174.900 TC 35 10 170
1977328S06177 1978 112 SP MM STEVE 1977-11-29 00:00:00 TS -19.0000 175.000 30 997 wellington main 257 257 O_______OOO_O_ jtwc_sh SH031978 -19.0000 175.000 35 0 -19.0000 175.000 30 997 -19.0000 175.000 TC 35 -19.0000 175.000 2 35 -19.0000 175.000 TC 35 9 172
1977328S06177 1978 112 SP MM STEVE 1977-11-29 03:00:00 TS -19.4415 175.058 main 271 271 P_______PPP_P_ SH031978 -19.4650 175.050 35 0 -19.4121 175.020 30 997 -19.4650 175.050 TC 35 -19.4222 175.079 2 -19.4650 175.050 TC 35 9 173
1977328S06177 1978 112 SP MM STEVE 1977-11-29 06:00:00 TS -19.8554 175.111 main 306 306 O_______POP_O_ jtwc_sh SH031978 -19.9000 175.100 35 0 -19.7897 175.020 30 997 -19.9000 175.100 TC 35 -19.8275 175.158 2 -19.9000 175.100 TC 35 8 172
1977328S06177 1978 112 SP MM STEVE 1977-11-29 09:00:00 TS -20.2416 175.182 main 322 322 P_______PPP_P_ SH031978 -20.2850 175.200 35 0 -20.1474 175.009 30 997 -20.2850 175.200 TC 35 -20.2441 175.232 2 -20.2850 175.193 TC 35 8 171
1977328S06177 1978 112 SP MM STEVE 1977-11-29 12:00:00 TS -20.6600 175.240 30 997 wellington main 364 364 O_______OOO_O_ jtwc_sh SH031978 -20.7000 175.300 35 0 -20.5000 175.000 30 997 -20.7000 175.300 TC 35 -20.7000 175.300 2 -20.7000 175.300 TC 35 10 174
1977328S06177 1978 112 SP MM STEVE 1977-11-29 15:00:00 TS -21.2001 175.284 main 405 405 P_______PPP_P_ SH031978 -21.2200 175.358 32 -1 -20.8733 175.028 -21.2200 175.358 TC 32 -21.2562 175.373 2 -21.2200 175.415 TC 32 11 176
1977328S06177 1978 112 SP MM STEVE 1977-11-29 18:00:00 TS -21.7904 175.333 main 463 463 O_______POP_O_ jtwc_sh SH031978 -21.8000 175.400 30 -1 -21.2465 175.069 -21.8000 175.400 TC 30 -21.8500 175.437 2 -21.8000 175.500 TC 30 12 174
1977328S06177 1978 112 SP MM STEVE 1977-11-29 21:00:00 TS -22.4046 175.411 main 520 520 P_______PPP_P_ SH031978 -22.4150 175.465 30 -1 -21.6206 175.121 -22.4150 175.465 TC 30 -22.4438 175.482 2 -22.4150 175.523 TC 30 12 173
1977328S06177 1978 112 SP MM STEVE 1977-11-30 00:00:00 TS -23.0000 175.500 30 997 wellington main 579 579 O_______POO_O_ jtwc_sh SH031978 -23.0000 175.500 30 -1 -21.9965 175.184 -23.0000 175.500 TC 30 -23.0000 175.500 1 30 -23.0000 175.500 TC 30 11 177
1977328S06177 1978 112 SP MM STEVE 1977-11-30 03:00:00 TS -23.4811 175.468 main 631 631 P_______PPP_P_ SH031978 -23.4800 175.465 30 -1 -22.3752 175.254 -23.4800 175.465 TC 30 -23.4843 175.483 1 -23.4800 175.458 TC 30 9 185
1977328S06177 1978 112 SP MM STEVE 1977-11-30 06:00:00 TS -23.9062 175.409 main 676 676 O_______POP_O_ jtwc_sh SH031978 -23.9000 175.400 30 -1 -22.7576 175.330 -23.9000 175.400 TC 30 -23.9249 175.438 1 -23.9000 175.400 TC 30 9 187
1977328S06177 1978 112 SP MM STEVE 1977-11-30 09:00:00 TS -24.3220 175.356 main 719 719 P_______PPP_P_ SH031978 -24.3225 175.350 30 -1 -23.1446 175.411 -24.3225 175.350 TC 30 -24.3281 175.374 1 -24.3150 175.350 TC 30 8 187
1977328S06177 1978 112 SP MM STEVE 1977-11-30 12:00:00 TS -24.7000 175.300 30 997 wellington main 764 764 O_______POO_O_ jtwc_sh SH031978 -24.7000 175.300 30 -1 -23.5373 175.493 -24.7000 175.300 TC 30 -24.7000 175.300 1 -24.7000 175.300 TC 30 7 187
1977328S06177 1978 112 SP MM STEVE 1977-11-30 15:00:00 TS -25.0314 175.253 main 795 795 P_______PPP_P_ SH031978 -25.0075 175.257 27 -1 -23.9366 175.577 -25.0075 175.257 TC 27 -25.0456 175.240 1 -25.0650 175.257 TC 27 7 189
1977328S06177 1978 112 SP MM STEVE 1977-11-30 18:00:00 TS -25.3412 175.193 main 830 830 O_______POP_O_ jtwc_sh SH031978 -25.3000 175.200 25 -1 -24.3435 175.658 -25.3000 175.200 TC 25 -25.3649 175.172 1 -25.4000 175.200 TC 25 6 192
1977328S06177 1978 112 SP MM STEVE 1977-11-30 21:00:00 TS -25.6636 175.104 main 876 876 P_______PPP_P_ SH031978 -25.6425 175.108 25 -1 -24.7590 175.736 -25.6425 175.108 TC 25 -25.6768 175.093 1 -25.6925 175.107 TC 25 7 195
1977328S06177 1978 112 SP MM STEVE 1977-12-01 00:00:00 TS -26.0000 175.000 30 997 wellington main 910 910 O_______POO_O_ jtwc_sh SH031978 -26.0000 175.000 25 -1 -25.1840 175.808 -26.0000 175.000 TC 25 -26.0000 175.000 1 25 -26.0000 175.000 TC 25 6 192
1977328S06177 1978 112 SP MM STEVE 1977-12-01 03:00:00 TS -26.2859 174.948 main 916 899 P_______PPP_P_ SH031978 -26.3425 174.907 25 -1 -25.6196 175.873 -26.3425 174.907 TC 25 -26.3607 174.874 1 -26.3925 174.907 TC 25 6 187
1977328S06177 1978 112 SP MM STEVE 1977-12-01 06:00:00 TS -26.6244 174.906 main 899 854 O_______POP_O_ jtwc_sh SH031978 -26.7000 174.800 25 -1 -26.0668 175.927 -26.7000 174.800 TC 25 -26.7351 174.736 1 -26.8000 174.800 TC 25 7 188
1977328S06177 1978 112 SP MM STEVE 1977-12-01 09:00:00 TS -27.0036 174.843 main 854 810 P_______PPP_P_ SH031978 -27.1000 174.643 25 -1 -26.5266 175.971 -27.1000 174.643 TC 25 -27.1170 174.605 1 -27.1575 174.643 TC 27 8 187
1977328S06177 1978 112 SP MM STEVE 1977-12-01 12:00:00 TS -27.4000 174.800 30 997 wellington main 810 764 O_______OOO_O_ jtwc_sh SH031978 -27.5000 174.500 25 -1 -27.0000 176.000 30 997 -27.5000 174.500 TC 25 -27.5000 174.500 1 -27.5000 174.500 TC 30 8 187
1977328S06177 1978 112 SP MM STEVE 1977-12-01 15:00:00 TS -27.7848 174.741 main 764 731 P_______PPP_P_ SH031978 -27.8500 174.427 25 -1 -27.5410 176.058 30 997 -27.8500 174.427 TC 25 -27.8052 174.348 1 -27.8425 174.427 TC 27 8 186
1977328S06177 1978 112 SP MM STEVE 1977-12-01 18:00:00 TS -28.1666 174.710 main 721 688 O_______POP_O_ jtwc_sh SH031978 -28.2000 174.400 25 -1 -28.0752 176.093 30 997 -28.2000 174.400 TC 25 -28.1210 174.239 1 -28.2000 174.400 TC 25 8 185
1977328S06177 1978 112 SP MM STEVE 1977-12-01 21:00:00 TS -28.5455 174.664 main 688 634 P_______PPP_P_ SH031978 -28.5548 174.333 25 -1 -28.5719 176.081 30 997 -28.5548 174.333 TC 25 -28.5013 174.235 1 -28.5248 174.326 TC 25 8 179
1977328S06177 1978 112 SP MM STEVE 1977-12-02 00:00:00 TS -29.0000 174.720 30 997 wellington main 634 585 O_______OOO_O_ jtwc_sh SH031978 -29.0000 174.400 25 -1 -29.0000 176.000 30 997 -29.0000 174.400 TC 25 -29.0000 174.400 1 25 -29.0000 174.400 TC 25 11 168
1977328S06177 1978 112 SP MM STEVE 1977-12-02 03:00:00 TS -29.5775 174.925 main 574 525 P_______PPP_P_ SH031978 -29.5670 174.682 25 -1 -29.3022 175.742 30 997 -29.5670 174.682 TC 25 -29.6541 174.780 1 -29.7973 174.737 TC 25 13 157
1977328S06177 1978 112 SP MM STEVE 1977-12-02 06:00:00 TS -30.2100 175.302 main 525 483 O_______POP_O_ jtwc_sh SH031978 -30.3000 175.200 25 -1 -29.5384 175.428 30 997 -30.3000 175.200 TC 25 -30.4353 175.343 1 -30.7000 175.300 TC 25 14 151
1977328S06177 1978 112 SP MM STEVE 1977-12-02 09:00:00 TS -30.7851 175.702 main 483 465 P_______PPP_P_ SH031978 -31.2040 175.935 25 -1 -29.7551 175.149 30 997 -31.2040 175.935 TC 25 -31.2988 176.035 1 -31.4935 176.011 TC 25 10 150
1977328S06177 1978 112 SP MM STEVE 1977-12-02 12:00:00 TS -31.1000 175.900 30 997 wellington main 465 464 O_______OOO_O_ jtwc_sh SH031978 -32.2000 176.800 25 -1 -30.0000 175.000 30 997 -32.2000 176.800 TC 25 -32.2000 176.800 6 -32.2000 176.800 TC 25 7 307
1977328S06177 1978 112 SP MM STEVE 1977-12-02 15:00:00 NR -30.3709 175.064 main 497 471 ________P_____ SH031978 -1 -30.3709 175.064 30 997 TC 6 TC 6 301
1977328S06177 1978 112 SP MM STEVE 1977-12-02 18:00:00 NR -30.7716 175.273 main 465 445 ________P_____ -1 -30.7716 175.273 30 997 6 9 150
1977328S06177 1978 112 SP MM STEVE 1977-12-02 21:00:00 NR -31.1615 175.595 main 440 429 ________P_____ -1 -31.1615 175.595 30 997 6 10 140
1977328S06177 1978 112 SP MM STEVE 1977-12-03 00:00:00 NR -31.5000 176.000 30 997 wellington main 435 433 ________O_____ -1 -31.5000 176.000 30 997 9 129
1977328S06177 1978 112 SP MM STEVE 1977-12-03 03:00:00 NR -31.7289 176.429 main 439 434 ________P_____ -1 -31.7289 176.429 30 997 9 117
1977328S06177 1978 112 SP MM STEVE 1977-12-03 06:00:00 NR -31.9031 176.926 main 446 446 ________P_____ -1 -31.9031 176.926 30 997 9 110
1977328S06177 1978 112 SP MM STEVE 1977-12-03 09:00:00 NR -32.0507 177.461 main 463 463 ________P_____ -1 -32.0507 177.461 30 997 10 108
1977328S06177 1978 112 SP MM STEVE 1977-12-03 12:00:00 NR -32.2000 178.000 30 997 wellington main 485 485 ________O_____ -1 -32.2000 178.000 30 997 10 110
1977328S06177 1978 112 SP MM STEVE 1977-12-03 15:00:00 NR -32.3739 178.520 main 504 504 ________P_____ -1 -32.3739 178.520 30 997 9 113
1977328S06177 1978 112 SP MM STEVE 1977-12-03 18:00:00 NR -32.5707 179.023 main 525 525 ________P_____ -1 -32.5707 179.023 30 997 9 116
1977328S06177 1978 112 SP MM STEVE 1977-12-03 21:00:00 NR -32.7821 179.513 main 545 532 ________P_____ -1 -32.7821 179.513 30 997 9 118
1977328S06177 1978 112 SP MM STEVE 1977-12-04 00:00:00 NR -33.0000 180.000 30 997 wellington main 535 ________O_____ -1 -33.0000 180.000 30 997 9 118

デジタル台風データ・検索

IBTrACS Databaseについて

本データベースは、米国NOAAが公開する1842年以降の世界の熱帯低気圧のベストトラックデータアーカイブInternational Best Track Archive for Climate Stewardship (IBTrACS)を、ウェブで閲覧しやすい形式に変換したものです。

最終更新日:2021-12-08